createdAt,value
2018-09-13T00:02:11.034Z,99.90
2018-09-13T00:04:38.642Z,99.90
2018-09-13T00:12:01.366Z,99.90
2018-09-13T00:16:56.584Z,99.90
2018-09-13T00:19:24.219Z,99.90
2018-09-13T00:24:19.410Z,99.90
2018-09-13T00:26:47.058Z,99.90
2018-09-13T00:31:42.300Z,99.90
2018-09-13T00:34:09.922Z,99.90
2018-09-13T00:36:37.524Z,99.90
2018-09-13T00:46:28.334Z,99.90
2018-09-13T00:51:23.443Z,99.90
2018-09-13T00:53:51.121Z,99.90
2018-09-13T00:56:18.766Z,99.90
2018-09-13T01:03:41.435Z,99.90
2018-09-13T01:06:09.044Z,99.90
2018-09-13T01:08:36.667Z,99.90
2018-09-13T01:13:31.821Z,99.90
2018-09-13T01:15:59.434Z,99.90
2018-09-13T01:18:27.060Z,99.80
2018-09-13T01:23:22.187Z,99.90
2018-09-13T01:25:49.814Z,99.90
2018-09-13T01:28:17.502Z,99.90
2018-09-13T01:30:45.118Z,99.90
2018-09-13T01:35:40.319Z,99.90
2018-09-13T01:40:35.467Z,99.90
2018-09-13T01:45:30.582Z,99.90
2018-09-13T01:47:58.199Z,99.90
2018-09-13T01:50:25.810Z,99.90
2018-09-13T01:52:53.415Z,99.90
2018-09-13T01:57:48.624Z,99.90
2018-09-13T02:02:43.762Z,99.90
2018-09-13T02:07:38.942Z,99.90
2018-09-13T02:15:01.583Z,99.90
2018-09-13T02:20:03.219Z,99.90
2018-09-13T02:22:30.819Z,99.90
2018-09-13T02:24:58.443Z,99.90
2018-09-13T02:29:53.822Z,99.90
2018-09-13T02:32:21.686Z,99.90
2018-09-13T02:34:49.501Z,99.90
2018-09-13T02:39:44.674Z,99.90
2018-09-13T02:49:34.994Z,99.90
2018-09-13T02:54:30.226Z,99.90
2018-09-13T03:01:53.719Z,99.90
2018-09-13T03:09:16.499Z,99.90
2018-09-13T03:14:11.916Z,99.90
2018-09-13T03:21:34.826Z,99.90
2018-09-13T03:24:02.452Z,99.90
2018-09-13T03:28:57.628Z,99.90
2018-09-13T03:31:25.244Z,99.90
2018-09-13T03:33:52.894Z,99.90
2018-09-13T03:36:20.499Z,99.90
2018-09-13T03:38:48.110Z,99.90
2018-09-13T03:46:10.842Z,99.90
2018-09-13T04:03:23.714Z,99.90
2018-09-13T04:10:46.415Z,99.90
2018-09-13T04:15:41.640Z,99.90
2018-09-13T04:20:36.754Z,99.90
2018-09-13T04:25:31.949Z,99.90
2018-09-13T04:27:59.572Z,99.90
2018-09-13T04:30:27.202Z,99.90
2018-09-13T04:37:49.822Z,99.90
2018-09-13T04:40:17.438Z,99.90
2018-09-13T04:42:45.039Z,99.90
2018-09-13T04:47:40.144Z,99.90
2018-09-13T04:50:07.797Z,99.90
2018-09-13T04:52:35.460Z,99.90
2018-09-13T04:55:03.149Z,99.90
2018-09-13T05:02:25.776Z,99.90
2018-09-13T05:17:11.091Z,99.90
2018-09-13T05:24:33.763Z,99.90
2018-09-13T05:27:01.430Z,99.90
2018-09-13T05:44:14.306Z,99.90
2018-09-13T05:46:41.951Z,99.90
2018-09-13T05:58:59.679Z,99.90
2018-09-13T06:01:28.041Z,99.90
2018-09-13T06:16:13.703Z,99.90
2018-09-13T06:21:08.946Z,99.90
2018-09-13T06:30:59.331Z,99.90
2018-09-13T06:33:26.959Z,99.90
2018-09-13T06:43:17.349Z,99.90
2018-09-13T07:00:36.335Z,99.90
2018-09-13T07:15:21.834Z,91.90
2018-09-13T07:17:49.561Z,92.10
2018-09-13T07:20:17.203Z,92.70
2018-09-13T07:22:44.808Z,94.70
2018-09-13T07:35:02.651Z,74.20
2018-09-13T07:37:30.283Z,73.40
2018-09-13T07:39:57.936Z,82.20
2018-09-13T07:42:25.636Z,89.10
2018-09-13T07:44:53.231Z,91.80
2018-09-13T07:52:16.020Z,82.00
2018-09-13T07:54:43.664Z,86.50
2018-09-13T07:57:11.314Z,89.80
2018-09-13T07:59:39.019Z,91.60
2018-09-13T08:04:34.274Z,90.70
2018-09-13T08:07:01.907Z,91.50
2018-09-13T08:09:29.490Z,92.50
2018-09-13T08:19:19.947Z,93.50
2018-09-13T08:21:47.652Z,94.70
2018-09-13T08:24:15.214Z,94.30
2018-09-13T08:26:42.856Z,93.60
2018-09-13T08:29:10.493Z,93.20
2018-09-13T08:31:38.155Z,93.10
2018-09-13T08:36:33.410Z,92.70
2018-09-13T08:41:28.602Z,92.00
2018-09-13T08:43:56.213Z,91.20
2018-09-13T08:46:23.795Z,90.00
2018-09-13T08:48:51.878Z,89.30
2018-09-13T08:51:19.658Z,88.70
2018-09-13T08:53:47.317Z,88.60
2018-09-13T08:58:42.490Z,87.70
2018-09-13T09:01:10.113Z,89.00
2018-09-13T09:03:37.738Z,88.80
2018-09-13T09:08:32.925Z,85.70
2018-09-13T09:11:00.603Z,85.00
2018-09-13T09:15:55.910Z,88.00
2018-09-13T09:18:23.646Z,87.90
2018-09-13T09:20:51.294Z,89.40
2018-09-13T09:23:18.914Z,90.00
2018-09-13T09:25:46.526Z,90.80
2018-09-13T09:28:14.166Z,90.90
2018-09-13T09:30:41.838Z,91.60
2018-09-13T09:35:36.975Z,91.80
2018-09-13T09:40:32.262Z,94.50
2018-09-13T09:42:59.830Z,95.30
2018-09-13T09:45:27.472Z,96.10
2018-09-13T09:47:55.110Z,96.00
2018-09-13T09:50:22.801Z,96.20
2018-09-13T09:52:50.430Z,96.10
2018-09-13T09:55:21.914Z,96.00
2018-09-13T09:57:50.113Z,95.60
2018-09-13T10:00:22.328Z,95.20
2018-09-13T10:02:50.098Z,96.10
2018-09-13T10:10:12.946Z,96.40
2018-09-13T10:12:40.674Z,95.90
2018-09-13T10:15:14.133Z,95.40
2018-09-13T10:17:47.512Z,94.80
2018-09-13T10:20:20.787Z,94.60
2018-09-13T10:25:27.030Z,94.10
2018-09-13T10:28:00.218Z,93.60
2018-09-13T10:40:45.967Z,96.50
2018-09-13T10:45:52.435Z,94.80
2018-09-13T10:53:31.134Z,92.20
2018-09-13T10:55:58.758Z,91.40
2018-09-13T10:58:27.747Z,90.50
2018-09-13T11:00:55.382Z,90.10
2018-09-13T11:10:45.765Z,87.60
2018-09-13T11:18:16.381Z,87.60
2018-09-13T11:25:39.110Z,84.60
2018-09-13T11:31:59.203Z,80.10
2018-09-13T11:34:26.838Z,80.80
2018-09-13T11:36:54.944Z,80.10
2018-09-13T11:39:22.591Z,79.50
2018-09-13T11:41:50.279Z,78.50
2018-09-13T11:44:17.946Z,77.10
2018-09-13T11:46:45.598Z,78.00
2018-09-13T11:49:13.220Z,78.70
2018-09-13T11:51:40.850Z,79.30
2018-09-13T11:54:08.573Z,79.70
2018-09-13T11:56:36.123Z,82.20
2018-09-13T11:59:03.799Z,81.80
2018-09-13T12:01:31.395Z,79.00
2018-09-13T12:03:59.040Z,80.30
2018-09-13T12:06:26.699Z,77.30
2018-09-13T12:08:54.371Z,80.10
2018-09-13T12:11:21.991Z,82.20
2018-09-13T12:13:49.612Z,79.30
2018-09-13T12:16:17.259Z,79.50
2018-09-13T12:18:44.927Z,81.90
2018-09-13T12:21:12.547Z,76.10
2018-09-13T12:23:40.241Z,76.80
2018-09-13T12:26:07.935Z,78.60
2018-09-13T12:28:35.615Z,79.20
2018-09-13T12:31:03.334Z,76.80
2018-09-13T12:33:30.961Z,79.10
2018-09-13T12:35:58.567Z,77.90
2018-09-13T12:38:26.158Z,75.30
2018-09-13T12:40:53.801Z,78.70
2018-09-13T12:43:21.437Z,77.90
2018-09-13T12:45:49.026Z,76.10
2018-09-13T12:50:45.099Z,80.00
2018-09-13T12:53:12.807Z,83.10
2018-09-13T12:55:46.143Z,84.30
2018-09-13T12:58:13.802Z,81.70
2018-09-13T13:03:09.115Z,81.00
2018-09-13T13:08:04.298Z,80.80
2018-09-13T13:10:31.958Z,78.10
2018-09-13T13:12:59.635Z,79.20
2018-09-13T13:20:22.416Z,80.20
2018-09-13T13:25:17.666Z,77.80
2018-09-13T13:27:45.316Z,78.60
2018-09-13T13:30:12.913Z,73.90
2018-09-13T13:32:40.532Z,74.00
2018-09-13T13:35:08.175Z,73.60
2018-09-13T13:37:35.795Z,74.20
2018-09-13T13:40:03.528Z,75.20
2018-09-13T13:42:31.146Z,75.90
2018-09-13T13:44:59.282Z,77.40
2018-09-13T13:47:26.899Z,76.30
2018-09-13T13:49:54.528Z,77.50
2018-09-13T13:52:22.214Z,75.70
2018-09-13T13:54:49.802Z,74.50
2018-09-13T13:57:17.422Z,71.60
2018-09-13T13:59:45.065Z,72.10
2018-09-13T14:02:12.688Z,72.30
2018-09-13T14:04:40.335Z,72.80
2018-09-13T14:07:07.973Z,71.80
2018-09-13T14:09:36.120Z,73.30
2018-09-13T14:12:03.818Z,73.90
2018-09-13T14:14:31.485Z,75.80
2018-09-13T14:16:59.881Z,73.60
2018-09-13T14:19:27.529Z,74.40
2018-09-13T14:21:55.203Z,74.60
2018-09-13T14:24:22.831Z,74.90
2018-09-13T14:26:50.479Z,73.50
2018-09-13T14:29:18.155Z,73.50
2018-09-13T14:31:45.874Z,71.40
2018-09-13T14:34:13.529Z,75.10
2018-09-13T14:36:41.311Z,75.70
2018-09-13T14:39:10.223Z,73.80
2018-09-13T14:41:38.887Z,74.40
2018-09-13T14:44:07.316Z,75.00
2018-09-13T14:46:35.679Z,76.00
2018-09-13T14:49:03.374Z,76.20
2018-09-13T14:51:31.039Z,75.80
2018-09-13T14:53:58.750Z,76.20
2018-09-13T14:56:27.460Z,77.20
2018-09-13T14:58:55.137Z,77.90
2018-09-13T15:01:23.123Z,78.70
2018-09-13T15:03:51.359Z,77.90
2018-09-13T15:06:19.058Z,79.90
2018-09-13T15:08:46.991Z,80.90
2018-09-13T15:11:14.816Z,82.10
2018-09-13T15:13:42.535Z,83.10
2018-09-13T15:16:10.765Z,83.40
2018-09-13T15:18:39.103Z,84.00
2018-09-13T15:21:06.782Z,85.20
2018-09-13T15:23:34.831Z,85.80
2018-09-13T15:26:02.541Z,85.40
2018-09-13T15:28:30.286Z,85.80
2018-09-13T15:30:58.896Z,85.40
2018-09-13T15:33:26.578Z,86.70
2018-09-13T15:35:54.206Z,87.80
2018-09-13T15:38:22.514Z,89.10
2018-09-13T15:40:51.239Z,89.60
2018-09-13T15:43:19.455Z,90.20
2018-09-13T15:45:47.102Z,90.70
2018-09-13T15:48:15.150Z,90.60
2018-09-13T15:50:42.818Z,90.80
2018-09-13T15:53:10.446Z,91.30
2018-09-13T15:55:38.163Z,92.80
2018-09-13T15:58:06.049Z,93.10
2018-09-13T16:00:33.990Z,95.60
2018-09-13T16:03:01.643Z,95.70
2018-09-13T16:05:29.302Z,95.40
2018-09-13T16:07:56.935Z,95.30
2018-09-13T16:10:24.548Z,94.80
2018-09-13T16:12:52.231Z,94.90
2018-09-13T16:15:19.882Z,96.30
2018-09-13T16:17:47.478Z,98.30
2018-09-13T16:20:15.114Z,99.90
2018-09-13T16:22:42.987Z,99.90
2018-09-13T16:25:10.624Z,99.90
2018-09-13T16:27:38.254Z,99.90
2018-09-13T16:30:06.578Z,99.90
2018-09-13T16:32:34.194Z,99.90
2018-09-13T16:35:02.224Z,99.90
2018-09-13T16:37:35.605Z,99.90
2018-09-13T16:40:13.201Z,99.90
2018-09-13T16:42:53.980Z,99.90
2018-09-13T16:45:26.374Z,99.90
2018-09-13T16:47:56.488Z,99.90
2018-09-13T16:50:24.151Z,99.90
2018-09-13T16:52:51.811Z,99.90
2018-09-13T16:57:47.828Z,99.90
2018-09-13T17:00:15.486Z,99.90
2018-09-13T17:02:43.152Z,99.90
2018-09-13T17:05:10.840Z,99.90
2018-09-13T17:07:38.526Z,99.90
2018-09-13T17:10:06.462Z,99.90
2018-09-13T17:15:02.765Z,99.90
2018-09-13T17:17:30.382Z,99.90
2018-09-13T17:19:58.074Z,99.90
2018-09-13T17:22:25.915Z,99.90
2018-09-13T17:24:53.615Z,99.90
2018-09-13T17:27:21.259Z,99.90
2018-09-13T17:29:49.948Z,99.90
2018-09-13T17:32:17.663Z,99.90
2018-09-13T17:34:45.279Z,99.90
2018-09-13T17:37:12.958Z,99.90
2018-09-13T17:39:44.532Z,99.90
2018-09-13T17:42:12.161Z,99.90
2018-09-13T17:44:39.834Z,99.90
2018-09-13T17:47:08.023Z,99.90
2018-09-13T17:49:36.407Z,99.90
2018-09-13T17:52:04.739Z,99.90
2018-09-13T17:56:59.943Z,99.90
2018-09-13T17:59:27.893Z,99.90
2018-09-13T18:01:55.547Z,99.90
2018-09-13T18:06:52.083Z,99.90
2018-09-13T18:09:19.761Z,99.90
2018-09-13T18:11:48.311Z,99.90
2018-09-13T18:14:15.987Z,99.90
2018-09-13T18:16:43.744Z,99.90
2018-09-13T18:19:11.406Z,99.90
2018-09-13T18:21:39.575Z,99.90
2018-09-13T18:24:07.696Z,99.90
2018-09-13T18:26:35.318Z,99.90
2018-09-13T18:29:03.015Z,99.90
2018-09-13T18:31:30.772Z,99.90
2018-09-13T18:33:58.486Z,99.90
2018-09-13T18:36:26.210Z,99.90
2018-09-13T18:38:53.934Z,99.90
2018-09-13T18:41:21.661Z,99.90
2018-09-13T18:43:49.319Z,99.90
2018-09-13T18:46:16.951Z,99.90
2018-09-13T18:48:44.660Z,99.90
2018-09-13T18:51:12.350Z,99.90
2018-09-13T18:53:40.026Z,99.90
2018-09-13T18:56:08.607Z,99.90
2018-09-13T18:58:37.156Z,99.90
2018-09-13T19:01:05.707Z,99.90
2018-09-13T19:03:33.328Z,99.90
2018-09-13T19:06:00.982Z,99.90
2018-09-13T19:08:28.742Z,99.90
2018-09-13T19:10:56.527Z,99.90
2018-09-13T19:13:24.172Z,99.90
2018-09-13T19:15:52.008Z,99.90
2018-09-13T19:18:19.568Z,99.90
2018-09-13T19:20:47.307Z,99.90
2018-09-13T19:23:14.955Z,99.90
2018-09-13T19:25:43.240Z,99.90
2018-09-13T19:28:10.868Z,99.90
2018-09-13T19:30:39.002Z,99.90
2018-09-13T19:33:06.669Z,99.90
2018-09-13T19:35:34.323Z,99.90
2018-09-13T19:38:01.987Z,99.90
2018-09-13T19:40:29.824Z,99.90
2018-09-13T19:42:57.552Z,99.90
2018-09-13T19:45:25.257Z,99.90
2018-09-13T19:47:52.925Z,99.90
2018-09-13T19:50:20.857Z,99.90
2018-09-13T19:52:48.514Z,99.90
2018-09-13T19:55:17.184Z,99.90
2018-09-13T19:57:44.878Z,99.90
2018-09-13T20:00:12.619Z,99.90
2018-09-13T20:02:40.282Z,99.90
2018-09-13T20:05:07.915Z,99.90
2018-09-13T20:07:35.549Z,99.90
2018-09-13T20:10:03.302Z,99.90
2018-09-13T20:12:30.939Z,99.90
2018-09-13T20:14:58.575Z,99.90
2018-09-13T20:17:26.219Z,99.90
2018-09-13T20:19:53.845Z,99.90
2018-09-13T20:22:21.530Z,99.90
2018-09-13T20:24:49.124Z,99.90
2018-09-13T20:27:16.742Z,99.90
2018-09-13T20:29:44.857Z,99.90
2018-09-13T20:32:12.535Z,99.90
2018-09-13T20:34:40.191Z,99.90
2018-09-13T20:37:07.819Z,99.90
2018-09-13T20:39:35.444Z,99.90
2018-09-13T20:42:03.127Z,99.90
2018-09-13T20:44:30.765Z,99.90
2018-09-13T20:46:58.449Z,99.90
2018-09-13T20:49:26.140Z,99.90
2018-09-13T20:51:53.862Z,99.90
2018-09-13T20:54:21.653Z,99.90
2018-09-13T20:56:49.356Z,99.90
2018-09-13T20:59:17.045Z,99.90
2018-09-13T21:01:44.813Z,99.90
2018-09-13T21:04:12.626Z,99.90
2018-09-13T21:06:40.279Z,99.90
2018-09-13T21:09:09.447Z,99.90
2018-09-13T21:11:37.080Z,99.90
2018-09-13T21:14:04.871Z,99.90
2018-09-13T21:16:32.629Z,99.90
2018-09-13T21:19:00.576Z,99.90
2018-09-13T21:21:34.805Z,99.90
2018-09-13T21:26:30.200Z,99.90
2018-09-13T21:28:57.851Z,99.90
2018-09-13T21:31:25.703Z,99.90
2018-09-13T21:33:53.522Z,99.90
2018-09-13T21:36:21.554Z,99.90
2018-09-13T21:38:49.210Z,99.90
2018-09-13T21:43:44.479Z,99.90
2018-09-13T21:46:12.348Z,99.90
2018-09-13T21:53:35.682Z,99.90
2018-09-13T21:56:03.379Z,99.90
2018-09-13T21:58:31.139Z,99.90
2018-09-13T22:00:58.884Z,99.90
2018-09-13T22:03:26.650Z,99.90
2018-09-13T22:05:54.472Z,99.90
2018-09-13T22:10:50.624Z,99.90
2018-09-13T22:13:19.017Z,99.90
2018-09-13T22:15:46.668Z,99.90
2018-09-13T22:18:14.420Z,99.90
2018-09-13T22:20:42.136Z,99.90
2018-09-13T22:23:09.874Z,99.90
2018-09-13T22:25:37.615Z,99.90
2018-09-13T22:28:05.349Z,99.90
2018-09-13T22:30:33.518Z,99.90
2018-09-13T22:33:01.187Z,99.90
2018-09-13T22:35:28.937Z,99.90
2018-09-13T22:37:56.963Z,99.90
2018-09-13T22:40:25.411Z,99.90
2018-09-13T22:42:53.593Z,99.90
2018-09-13T22:45:21.304Z,99.90
2018-09-13T22:47:49.199Z,99.90
2018-09-13T22:50:16.911Z,99.90
2018-09-13T22:52:44.933Z,99.90
2018-09-13T22:55:12.667Z,99.90
2018-09-13T22:57:41.203Z,99.90
2018-09-13T23:00:09.473Z,99.90
2018-09-13T23:02:42.803Z,99.90
2018-09-13T23:05:10.985Z,99.90
2018-09-13T23:07:39.266Z,99.90
2018-09-13T23:10:06.971Z,99.90
2018-09-13T23:12:34.650Z,99.90
2018-09-13T23:15:02.315Z,99.90
2018-09-13T23:17:30.029Z,99.90
2018-09-13T23:19:57.683Z,99.90
2018-09-13T23:22:25.363Z,99.90
2018-09-13T23:24:53.020Z,99.90
2018-09-13T23:27:20.686Z,99.90
2018-09-13T23:29:48.670Z,99.90
2018-09-13T23:32:16.339Z,99.90
2018-09-13T23:34:44.042Z,99.90
2018-09-13T23:37:11.746Z,99.90
2018-09-13T23:39:41.827Z,99.90
2018-09-13T23:42:09.692Z,99.90
2018-09-13T23:44:38.224Z,99.90
2018-09-13T23:47:06.156Z,99.90
2018-09-13T23:49:33.914Z,99.90
2018-09-13T23:52:01.600Z,99.90
2018-09-13T23:56:56.943Z,99.90
2018-09-13T23:59:24.772Z,99.90
